sensor_id;sensor_type;location;lat;lon;timestamp;temperature;humidity
76537;DHT22;65381;51.254;15.592;2023-06-19T00:01:15;15.40;54.50
76537;DHT22;65381;51.254;15.592;2023-06-19T00:03:43;15.40;54.60
76537;DHT22;65381;51.254;15.592;2023-06-19T00:06:11;15.40;54.70
76537;DHT22;65381;51.254;15.592;2023-06-19T00:08:40;15.50;54.60
76537;DHT22;65381;51.254;15.592;2023-06-19T00:11:08;15.50;54.70
76537;DHT22;65381;51.254;15.592;2023-06-19T00:13:36;15.50;54.70
76537;DHT22;65381;51.254;15.592;2023-06-19T00:16:04;15.50;54.70
76537;DHT22;65381;51.254;15.592;2023-06-19T00:18:33;15.50;54.80
76537;DHT22;65381;51.254;15.592;2023-06-19T00:21:08;15.40;54.80
76537;DHT22;65381;51.254;15.592;2023-06-19T00:23:36;15.40;54.80
76537;DHT22;65381;51.254;15.592;2023-06-19T00:26:04;15.40;54.90
76537;DHT22;65381;51.254;15.592;2023-06-19T00:28:32;15.40;55.00
76537;DHT22;65381;51.254;15.592;2023-06-19T00:31:00;15.40;55.00
76537;DHT22;65381;51.254;15.592;2023-06-19T00:33:28;15.30;55.00
76537;DHT22;65381;51.254;15.592;2023-06-19T00:35:56;15.30;55.00
76537;DHT22;65381;51.254;15.592;2023-06-19T00:38:24;15.30;55.10
76537;DHT22;65381;51.254;15.592;2023-06-19T00:40:52;15.30;55.10
76537;DHT22;65381;51.254;15.592;2023-06-19T00:43:20;15.30;55.20
76537;DHT22;65381;51.254;15.592;2023-06-19T00:45:48;15.30;55.20
76537;DHT22;65381;51.254;15.592;2023-06-19T00:48:16;15.30;55.10
76537;DHT22;65381;51.254;15.592;2023-06-19T00:50:44;15.30;55.20
76537;DHT22;65381;51.254;15.592;2023-06-19T00:53:12;15.30;55.20
76537;DHT22;65381;51.254;15.592;2023-06-19T00:55:40;15.40;55.20
76537;DHT22;65381;51.254;15.592;2023-06-19T00:58:09;15.40;55.20
76537;DHT22;65381;51.254;15.592;2023-06-19T01:00:37;15.40;55.20
76537;DHT22;65381;51.254;15.592;2023-06-19T01:03:05;15.40;55.20
76537;DHT22;65381;51.254;15.592;2023-06-19T01:05:33;15.40;55.20
76537;DHT22;65381;51.254;15.592;2023-06-19T01:10:56;15.40;55.30
76537;DHT22;65381;51.254;15.592;2023-06-19T01:13:36;15.40;55.40
76537;DHT22;65381;51.254;15.592;2023-06-19T01:16:06;15.40;55.40
76537;DHT22;65381;51.254;15.592;2023-06-19T01:18:35;15.40;55.70
76537;DHT22;65381;51.254;15.592;2023-06-19T01:21:14;15.50;55.60
76537;DHT22;65381;51.254;15.592;2023-06-19T01:23:43;15.50;55.60
76537;DHT22;65381;51.254;15.592;2023-06-19T01:26:12;15.50;55.50
76537;DHT22;65381;51.254;15.592;2023-06-19T01:28:41;15.50;55.50
76537;DHT22;65381;51.254;15.592;2023-06-19T01:31:31;15.40;55.60
76537;DHT22;65381;51.254;15.592;2023-06-19T01:34:03;15.30;55.70
76537;DHT22;65381;51.254;15.592;2023-06-19T01:36:31;15.30;55.70
76537;DHT22;65381;51.254;15.592;2023-06-19T01:39:00;15.20;55.70
76537;DHT22;65381;51.254;15.592;2023-06-19T01:41:30;15.10;55.80
76537;DHT22;65381;51.254;15.592;2023-06-19T01:43:59;15.10;55.90
76537;DHT22;65381;51.254;15.592;2023-06-19T01:46:27;15.00;55.90
76537;DHT22;65381;51.254;15.592;2023-06-19T01:48:55;15.00;56.00
76537;DHT22;65381;51.254;15.592;2023-06-19T01:51:23;15.00;56.00
76537;DHT22;65381;51.254;15.592;2023-06-19T01:53:51;14.90;56.00
76537;DHT22;65381;51.254;15.592;2023-06-19T01:56:18;14.90;56.10
76537;DHT22;65381;51.254;15.592;2023-06-19T01:58:47;14.80;56.20
76537;DHT22;65381;51.254;15.592;2023-06-19T02:01:14;14.80;56.30
76537;DHT22;65381;51.254;15.592;2023-06-19T02:03:42;14.80;56.30
76537;DHT22;65381;51.254;15.592;2023-06-19T02:06:10;14.80;56.40
76537;DHT22;65381;51.254;15.592;2023-06-19T02:08:38;14.80;56.40
76537;DHT22;65381;51.254;15.592;2023-06-19T02:11:09;14.70;56.50
76537;DHT22;65381;51.254;15.592;2023-06-19T02:13:37;14.70;56.50
76537;DHT22;65381;51.254;15.592;2023-06-19T02:16:06;14.70;56.50
76537;DHT22;65381;51.254;15.592;2023-06-19T02:18:34;14.70;56.60
76537;DHT22;65381;51.254;15.592;2023-06-19T02:21:02;14.70;56.60
76537;DHT22;65381;51.254;15.592;2023-06-19T02:23:30;14.80;56.60
76537;DHT22;65381;51.254;15.592;2023-06-19T02:25:58;14.80;56.60
76537;DHT22;65381;51.254;15.592;2023-06-19T02:28:26;14.80;56.70
76537;DHT22;65381;51.254;15.592;2023-06-19T02:30:54;14.80;56.70
76537;DHT22;65381;51.254;15.592;2023-06-19T02:33:22;14.80;56.80
76537;DHT22;65381;51.254;15.592;2023-06-19T02:35:52;14.80;56.90
76537;DHT22;65381;51.254;15.592;2023-06-19T02:38:20;14.80;56.90
76537;DHT22;65381;51.254;15.592;2023-06-19T02:40:48;14.80;57.00
76537;DHT22;65381;51.254;15.592;2023-06-19T02:43:16;14.80;57.00
76537;DHT22;65381;51.254;15.592;2023-06-19T02:45:44;14.90;56.90
76537;DHT22;65381;51.254;15.592;2023-06-19T02:48:12;14.90;56.90
76537;DHT22;65381;51.254;15.592;2023-06-19T02:50:39;14.80;57.00
76537;DHT22;65381;51.254;15.592;2023-06-19T02:53:07;14.80;57.20
76537;DHT22;65381;51.254;15.592;2023-06-19T02:55:36;14.80;57.30
76537;DHT22;65381;51.254;15.592;2023-06-19T02:58:03;14.80;57.40
76537;DHT22;65381;51.254;15.592;2023-06-19T03:00:31;14.80;57.50
76537;DHT22;65381;51.254;15.592;2023-06-19T03:02:59;14.80;57.60
76537;DHT22;65381;51.254;15.592;2023-06-19T03:05:27;14.90;57.60
76537;DHT22;65381;51.254;15.592;2023-06-19T03:07:56;14.90;57.70
76537;DHT22;65381;51.254;15.592;2023-06-19T03:10:25;15.00;57.70
76537;DHT22;65381;51.254;15.592;2023-06-19T03:12:53;15.00;57.70
76537;DHT22;65381;51.254;15.592;2023-06-19T03:15:21;15.10;57.70
76537;DHT22;65381;51.254;15.592;2023-06-19T03:17:50;15.20;57.60
76537;DHT22;65381;51.254;15.592;2023-06-19T03:20:18;15.30;57.60
76537;DHT22;65381;51.254;15.592;2023-06-19T03:22:53;15.40;57.60
76537;DHT22;65381;51.254;15.592;2023-06-19T03:25:23;15.50;57.50
76537;DHT22;65381;51.254;15.592;2023-06-19T03:27:51;15.50;57.50
76537;DHT22;65381;51.254;15.592;2023-06-19T03:30:19;15.60;57.50
76537;DHT22;65381;51.254;15.592;2023-06-19T03:32:50;15.60;57.50
76537;DHT22;65381;51.254;15.592;2023-06-19T03:35:35;15.70;57.50
76537;DHT22;65381;51.254;15.592;2023-06-19T03:38:03;15.80;57.50
76537;DHT22;65381;51.254;15.592;2023-06-19T03:40:31;15.80;57.50
76537;DHT22;65381;51.254;15.592;2023-06-19T03:43:06;16.00;57.40
76537;DHT22;65381;51.254;15.592;2023-06-19T03:45:35;16.10;57.40
76537;DHT22;65381;51.254;15.592;2023-06-19T03:48:03;16.20;57.30
76537;DHT22;65381;51.254;15.592;2023-06-19T03:50:31;16.30;57.20
76537;DHT22;65381;51.254;15.592;2023-06-19T03:52:59;16.40;57.10
76537;DHT22;65381;51.254;15.592;2023-06-19T03:55:27;16.50;57.10
76537;DHT22;65381;51.254;15.592;2023-06-19T03:57:55;16.60;57.00
76537;DHT22;65381;51.254;15.592;2023-06-19T04:00:23;16.70;57.00
76537;DHT22;65381;51.254;15.592;2023-06-19T04:02:51;16.80;56.90
76537;DHT22;65381;51.254;15.592;2023-06-19T04:05:19;16.90;56.90
76537;DHT22;65381;51.254;15.592;2023-06-19T04:07:48;17.00;56.90
76537;DHT22;65381;51.254;15.592;2023-06-19T04:10:15;17.00;56.80
76537;DHT22;65381;51.254;15.592;2023-06-19T04:12:43;17.20;56.70
76537;DHT22;65381;51.254;15.592;2023-06-19T04:15:13;17.20;56.60
76537;DHT22;65381;51.254;15.592;2023-06-19T04:17:41;17.40;56.60
76537;DHT22;65381;51.254;15.592;2023-06-19T04:20:09;17.50;56.60
76537;DHT22;65381;51.254;15.592;2023-06-19T04:22:41;17.50;56.60
76537;DHT22;65381;51.254;15.592;2023-06-19T04:25:09;17.60;56.50
76537;DHT22;65381;51.254;15.592;2023-06-19T04:27:38;17.80;56.50
76537;DHT22;65381;51.254;15.592;2023-06-19T04:30:06;17.90;56.40
76537;DHT22;65381;51.254;15.592;2023-06-19T04:32:35;18.00;56.30
76537;DHT22;65381;51.254;15.592;2023-06-19T04:35:03;18.10;56.20
76537;DHT22;65381;51.254;15.592;2023-06-19T04:37:32;18.20;56.20
76537;DHT22;65381;51.254;15.592;2023-06-19T04:39:59;18.30;56.10
76537;DHT22;65381;51.254;15.592;2023-06-19T04:42:27;18.40;56.10
76537;DHT22;65381;51.254;15.592;2023-06-19T04:44:55;18.50;56.10
76537;DHT22;65381;51.254;15.592;2023-06-19T04:47:23;18.70;56.00
76537;DHT22;65381;51.254;15.592;2023-06-19T04:50:02;18.90;55.90
76537;DHT22;65381;51.254;15.592;2023-06-19T04:52:31;19.10;55.80
76537;DHT22;65381;51.254;15.592;2023-06-19T04:55:00;19.30;55.70
76537;DHT22;65381;51.254;15.592;2023-06-19T04:57:28;19.50;55.60
76537;DHT22;65381;51.254;15.592;2023-06-19T04:59:56;19.50;55.60
76537;DHT22;65381;51.254;15.592;2023-06-19T05:02:24;19.70;55.50
76537;DHT22;65381;51.254;15.592;2023-06-19T05:04:52;19.80;55.50
76537;DHT22;65381;51.254;15.592;2023-06-19T05:07:20;19.90;55.50
76537;DHT22;65381;51.254;15.592;2023-06-19T05:09:47;20.00;55.50
76537;DHT22;65381;51.254;15.592;2023-06-19T05:12:15;20.20;55.60
76537;DHT22;65381;51.254;15.592;2023-06-19T05:14:43;20.70;55.90
76537;DHT22;65381;51.254;15.592;2023-06-19T05:17:12;21.50;55.60
76537;DHT22;65381;51.254;15.592;2023-06-19T05:19:39;22.50;55.30
76537;DHT22;65381;51.254;15.592;2023-06-19T05:22:07;23.70;54.30
76537;DHT22;65381;51.254;15.592;2023-06-19T05:24:35;24.10;53.60
76537;DHT22;65381;51.254;15.592;2023-06-19T05:27:03;24.00;53.40
76537;DHT22;65381;51.254;15.592;2023-06-19T05:29:32;23.90;53.70
76537;DHT22;65381;51.254;15.592;2023-06-19T05:32:00;24.40;54.00
76537;DHT22;65381;51.254;15.592;2023-06-19T05:34:28;25.10;53.40
76537;DHT22;65381;51.254;15.592;2023-06-19T05:36:55;25.50;52.90
76537;DHT22;65381;51.254;15.592;2023-06-19T05:39:23;25.60;52.70
76537;DHT22;65381;51.254;15.592;2023-06-19T05:41:51;25.90;52.70
76537;DHT22;65381;51.254;15.592;2023-06-19T05:44:19;26.00;52.30
76537;DHT22;65381;51.254;15.592;2023-06-19T05:46:47;25.90;52.70
76537;DHT22;65381;51.254;15.592;2023-06-19T05:49:14;26.10;52.50
76537;DHT22;65381;51.254;15.592;2023-06-19T05:51:42;26.40;52.10
76537;DHT22;65381;51.254;15.592;2023-06-19T05:54:10;26.20;52.00
76537;DHT22;65381;51.254;15.592;2023-06-19T05:56:38;26.00;51.90
76537;DHT22;65381;51.254;15.592;2023-06-19T05:59:06;25.80;52.10
76537;DHT22;65381;51.254;15.592;2023-06-19T06:01:35;25.90;52.00
76537;DHT22;65381;51.254;15.592;2023-06-19T06:04:02;26.00;51.90
76537;DHT22;65381;51.254;15.592;2023-06-19T06:06:31;26.00;51.70
76537;DHT22;65381;51.254;15.592;2023-06-19T06:08:58;26.20;51.50
76537;DHT22;65381;51.254;15.592;2023-06-19T06:11:26;26.30;51.10
76537;DHT22;65381;51.254;15.592;2023-06-19T06:13:54;26.20;51.20
76537;DHT22;65381;51.254;15.592;2023-06-19T06:16:22;26.10;51.10
76537;DHT22;65381;51.254;15.592;2023-06-19T06:18:50;26.10;51.10
76537;DHT22;65381;51.254;15.592;2023-06-19T06:21:18;26.10;50.90
76537;DHT22;65381;51.254;15.592;2023-06-19T06:23:45;26.10;51.00
76537;DHT22;65381;51.254;15.592;2023-06-19T06:26:15;26.00;50.90
76537;DHT22;65381;51.254;15.592;2023-06-19T06:28:43;26.10;50.90
76537;DHT22;65381;51.254;15.592;2023-06-19T06:31:11;26.20;50.70
76537;DHT22;65381;51.254;15.592;2023-06-19T06:33:39;26.20;50.70
76537;DHT22;65381;51.254;15.592;2023-06-19T06:36:07;26.20;50.70
76537;DHT22;65381;51.254;15.592;2023-06-19T06:38:35;26.20;50.70
76537;DHT22;65381;51.254;15.592;2023-06-19T06:41:03;26.20;50.70
76537;DHT22;65381;51.254;15.592;2023-06-19T06:43:31;26.40;50.70
76537;DHT22;65381;51.254;15.592;2023-06-19T06:45:59;26.70;50.40
76537;DHT22;65381;51.254;15.592;2023-06-19T06:48:27;27.00;50.40
76537;DHT22;65381;51.254;15.592;2023-06-19T06:50:55;27.40;50.00
76537;DHT22;65381;51.254;15.592;2023-06-19T06:53:28;27.80;49.80
76537;DHT22;65381;51.254;15.592;2023-06-19T06:55:57;28.40;49.60
76537;DHT22;65381;51.254;15.592;2023-06-19T06:58:26;29.10;49.10
76537;DHT22;65381;51.254;15.592;2023-06-19T07:00:55;29.70;48.70
76537;DHT22;65381;51.254;15.592;2023-06-19T07:03:23;30.40;48.20
76537;DHT22;65381;51.254;15.592;2023-06-19T07:05:51;30.90;48.00
76537;DHT22;65381;51.254;15.592;2023-06-19T07:08:20;31.50;47.50
76537;DHT22;65381;51.254;15.592;2023-06-19T07:10:47;31.50;47.30
76537;DHT22;65381;51.254;15.592;2023-06-19T07:13:15;31.50;47.20
76537;DHT22;65381;51.254;15.592;2023-06-19T07:15:43;31.40;47.20
76537;DHT22;65381;51.254;15.592;2023-06-19T07:18:12;31.20;47.30
76537;DHT22;65381;51.254;15.592;2023-06-19T07:20:40;31.10;47.30
76537;DHT22;65381;51.254;15.592;2023-06-19T07:23:09;31.00;47.20
76537;DHT22;65381;51.254;15.592;2023-06-19T07:25:38;31.00;47.30
76537;DHT22;65381;51.254;15.592;2023-06-19T07:28:05;31.20;47.30
76537;DHT22;65381;51.254;15.592;2023-06-19T07:30:33;31.40;47.00
76537;DHT22;65381;51.254;15.592;2023-06-19T07:33:01;31.60;47.10
76537;DHT22;65381;51.254;15.592;2023-06-19T07:35:29;32.20;46.60
76537;DHT22;65381;51.254;15.592;2023-06-19T07:37:57;32.50;46.10
76537;DHT22;65381;51.254;15.592;2023-06-19T07:40:25;32.40;46.10
76537;DHT22;65381;51.254;15.592;2023-06-19T07:42:53;32.40;46.10
76537;DHT22;65381;51.254;15.592;2023-06-19T07:45:21;32.70;45.90
76537;DHT22;65381;51.254;15.592;2023-06-19T07:47:54;33.20;45.50
76537;DHT22;65381;51.254;15.592;2023-06-19T07:50:23;33.90;45.00
76537;DHT22;65381;51.254;15.592;2023-06-19T07:52:53;34.50;44.50
76537;DHT22;65381;51.254;15.592;2023-06-19T07:55:21;35.00;44.00
76537;DHT22;65381;51.254;15.592;2023-06-19T07:57:49;35.30;43.70
76537;DHT22;65381;51.254;15.592;2023-06-19T08:00:17;35.50;43.40
76537;DHT22;65381;51.254;15.592;2023-06-19T08:02:45;35.50;43.30
76537;DHT22;65381;51.254;15.592;2023-06-19T08:05:14;35.40;43.20
76537;DHT22;65381;51.254;15.592;2023-06-19T08:07:42;35.10;43.10
76537;DHT22;65381;51.254;15.592;2023-06-19T08:10:10;34.60;43.40
76537;DHT22;65381;51.254;15.592;2023-06-19T08:12:54;34.40;43.30
76537;DHT22;65381;51.254;15.592;2023-06-19T08:15:22;34.40;43.40
76537;DHT22;65381;51.254;15.592;2023-06-19T08:17:50;34.70;42.90
76537;DHT22;65381;51.254;15.592;2023-06-19T08:20:18;35.00;42.50
76537;DHT22;65381;51.254;15.592;2023-06-19T08:22:47;34.80;42.40
76537;DHT22;65381;51.254;15.592;2023-06-19T08:25:15;34.40;42.50
76537;DHT22;65381;51.254;15.592;2023-06-19T08:27:43;34.40;42.60
76537;DHT22;65381;51.254;15.592;2023-06-19T08:30:12;34.20;42.10
76537;DHT22;65381;51.254;15.592;2023-06-19T08:32:40;33.90;42.30
76537;DHT22;65381;51.254;15.592;2023-06-19T08:35:08;33.90;42.20
76537;DHT22;65381;51.254;15.592;2023-06-19T08:37:36;33.90;41.90
76537;DHT22;65381;51.254;15.592;2023-06-19T08:40:05;34.00;41.70
76537;DHT22;65381;51.254;15.592;2023-06-19T08:42:37;34.00;41.20
76537;DHT22;65381;51.254;15.592;2023-06-19T08:45:07;34.00;41.10
76537;DHT22;65381;51.254;15.592;2023-06-19T08:47:37;33.60;41.10
76537;DHT22;65381;51.254;15.592;2023-06-19T08:50:05;33.20;41.20
76537;DHT22;65381;51.254;15.592;2023-06-19T08:52:33;32.80;41.20
76537;DHT22;65381;51.254;15.592;2023-06-19T08:55:02;32.50;41.40
76537;DHT22;65381;51.254;15.592;2023-06-19T08:57:37;32.40;41.50
76537;DHT22;65381;51.254;15.592;2023-06-19T09:00:06;32.20;41.40
76537;DHT22;65381;51.254;15.592;2023-06-19T09:02:45;32.20;41.20
76537;DHT22;65381;51.254;15.592;2023-06-19T09:05:24;32.20;41.20
76537;DHT22;65381;51.254;15.592;2023-06-19T09:07:58;32.00;41.20
76537;DHT22;65381;51.254;15.592;2023-06-19T09:10:31;31.60;41.20
76537;DHT22;65381;51.254;15.592;2023-06-19T09:13:03;31.20;41.40
76537;DHT22;65381;51.254;15.592;2023-06-19T09:15:34;30.90;41.50
76537;DHT22;65381;51.254;15.592;2023-06-19T09:18:05;30.70;41.60
76537;DHT22;65381;51.254;15.592;2023-06-19T09:20:36;30.70;41.50
76537;DHT22;65381;51.254;15.592;2023-06-19T09:23:06;30.80;41.50
76537;DHT22;65381;51.254;15.592;2023-06-19T09:25:46;31.20;41.10
76537;DHT22;65381;51.254;15.592;2023-06-19T09:28:28;31.40;41.00
76537;DHT22;65381;51.254;15.592;2023-06-19T09:31:01;31.40;40.80
76537;DHT22;65381;51.254;15.592;2023-06-19T09:33:31;31.30;40.70
76537;DHT22;65381;51.254;15.592;2023-06-19T09:36:02;31.10;40.90
76537;DHT22;65381;51.254;15.592;2023-06-19T09:38:35;31.10;40.90
76537;DHT22;65381;51.254;15.592;2023-06-19T09:41:07;31.20;40.90
76537;DHT22;65381;51.254;15.592;2023-06-19T09:43:47;31.40;40.70
76537;DHT22;65381;51.254;15.592;2023-06-19T09:46:18;31.70;40.60
76537;DHT22;65381;51.254;15.592;2023-06-19T09:48:48;32.20;40.30
76537;DHT22;65381;51.254;15.592;2023-06-19T09:51:27;32.50;40.00
76537;DHT22;65381;51.254;15.592;2023-06-19T09:53:58;32.70;39.80
76537;DHT22;65381;51.254;15.592;2023-06-19T09:56:28;33.00;39.70
76537;DHT22;65381;51.254;15.592;2023-06-19T09:58:58;33.30;39.50
76537;DHT22;65381;51.254;15.592;2023-06-19T10:01:31;34.10;39.10
76537;DHT22;65381;51.254;15.592;2023-06-19T10:04:08;35.10;38.50
76537;DHT22;65381;51.254;15.592;2023-06-19T10:06:43;35.70;37.90
76537;DHT22;65381;51.254;15.592;2023-06-19T10:09:13;35.80;37.60
76537;DHT22;65381;51.254;15.592;2023-06-19T10:11:51;36.00;37.50
76537;DHT22;65381;51.254;15.592;2023-06-19T10:14:22;36.30;37.30
76537;DHT22;65381;51.254;15.592;2023-06-19T10:16:52;37.00;37.00
76537;DHT22;65381;51.254;15.592;2023-06-19T10:19:22;37.80;36.10
76537;DHT22;65381;51.254;15.592;2023-06-19T10:21:51;39.00;35.50
76537;DHT22;65381;51.254;15.592;2023-06-19T10:24:20;40.00;34.70
76537;DHT22;65381;51.254;15.592;2023-06-19T10:27:02;39.80;33.70
76537;DHT22;65381;51.254;15.592;2023-06-19T10:29:40;39.10;34.20
76537;DHT22;65381;51.254;15.592;2023-06-19T10:32:14;38.50;34.20
76537;DHT22;65381;51.254;15.592;2023-06-19T10:34:46;38.10;34.60
76537;DHT22;65381;51.254;15.592;2023-06-19T10:37:17;38.10;34.50
76537;DHT22;65381;51.254;15.592;2023-06-19T10:39:45;37.80;34.80
76537;DHT22;65381;51.254;15.592;2023-06-19T10:42:13;37.30;34.80
76537;DHT22;65381;51.254;15.592;2023-06-19T10:44:40;36.70;35.20
76537;DHT22;65381;51.254;15.592;2023-06-19T10:47:09;36.50;35.30
76537;DHT22;65381;51.254;15.592;2023-06-19T10:49:37;36.10;35.40
76537;DHT22;65381;51.254;15.592;2023-06-19T10:52:07;35.80;35.60
76537;DHT22;65381;51.254;15.592;2023-06-19T10:54:34;35.80;35.70
76537;DHT22;65381;51.254;15.592;2023-06-19T10:57:05;35.80;35.70
76537;DHT22;65381;51.254;15.592;2023-06-19T10:59:34;35.90;35.50
76537;DHT22;65381;51.254;15.592;2023-06-19T11:02:02;36.10;35.30
76537;DHT22;65381;51.254;15.592;2023-06-19T11:04:30;36.30;35.20
76537;DHT22;65381;51.254;15.592;2023-06-19T11:07:04;36.30;35.20
76537;DHT22;65381;51.254;15.592;2023-06-19T11:09:32;36.00;35.20
76537;DHT22;65381;51.254;15.592;2023-06-19T11:12:01;36.10;35.40
76537;DHT22;65381;51.254;15.592;2023-06-19T11:14:32;36.50;35.20
76537;DHT22;65381;51.254;15.592;2023-06-19T11:17:07;37.40;34.60
76537;DHT22;65381;51.254;15.592;2023-06-19T11:19:35;37.80;34.10
76537;DHT22;65381;51.254;15.592;2023-06-19T11:22:05;38.10;34.00
76537;DHT22;65381;51.254;15.592;2023-06-19T11:24:34;38.50;33.70
76537;DHT22;65381;51.254;15.592;2023-06-19T11:27:05;38.60;33.60
76537;DHT22;65381;51.254;15.592;2023-06-19T11:29:34;38.70;33.60
76537;DHT22;65381;51.254;15.592;2023-06-19T11:32:14;38.50;33.60
76537;DHT22;65381;51.254;15.592;2023-06-19T11:34:42;38.10;33.90
76537;DHT22;65381;51.254;15.592;2023-06-19T11:37:13;37.80;34.00
76537;DHT22;65381;51.254;15.592;2023-06-19T11:39:44;37.50;34.30
76537;DHT22;65381;51.254;15.592;2023-06-19T11:42:12;37.50;34.40
76537;DHT22;65381;51.254;15.592;2023-06-19T11:45:01;37.50;34.30
76537;DHT22;65381;51.254;15.592;2023-06-19T11:47:31;36.90;34.40
76537;DHT22;65381;51.254;15.592;2023-06-19T11:50:04;36.30;34.80
76537;DHT22;65381;51.254;15.592;2023-06-19T11:52:32;36.10;34.90
76537;DHT22;65381;51.254;15.592;2023-06-19T11:55:01;36.00;34.70
76537;DHT22;65381;51.254;15.592;2023-06-19T11:57:29;35.70;34.80
76537;DHT22;65381;51.254;15.592;2023-06-19T11:59:57;35.80;34.90
76537;DHT22;65381;51.254;15.592;2023-06-19T12:02:25;36.70;34.60
76537;DHT22;65381;51.254;15.592;2023-06-19T12:04:53;38.10;33.80
76537;DHT22;65381;51.254;15.592;2023-06-19T12:07:21;39.30;33.20
76537;DHT22;65381;51.254;15.592;2023-06-19T12:09:49;40.40;32.60
76537;DHT22;65381;51.254;15.592;2023-06-19T12:12:17;41.10;32.30
76537;DHT22;65381;51.254;15.592;2023-06-19T12:14:45;41.50;31.90
76537;DHT22;65381;51.254;15.592;2023-06-19T12:17:13;41.10;31.90
76537;DHT22;65381;51.254;15.592;2023-06-19T12:19:41;40.40;32.20
76537;DHT22;65381;51.254;15.592;2023-06-19T12:22:09;39.30;32.70
76537;DHT22;65381;51.254;15.592;2023-06-19T12:24:36;38.60;33.00
76537;DHT22;65381;51.254;15.592;2023-06-19T12:27:05;38.30;33.20
76537;DHT22;65381;51.254;15.592;2023-06-19T12:29:32;38.00;33.30
76537;DHT22;65381;51.254;15.592;2023-06-19T12:32:01;37.40;33.50
76537;DHT22;65381;51.254;15.592;2023-06-19T12:34:30;36.80;33.80
76537;DHT22;65381;51.254;15.592;2023-06-19T12:36:58;36.70;34.10
76537;DHT22;65381;51.254;15.592;2023-06-19T12:39:26;37.20;33.90
76537;DHT22;65381;51.254;15.592;2023-06-19T12:41:54;37.80;33.60
76537;DHT22;65381;51.254;15.592;2023-06-19T12:44:22;38.10;33.20
76537;DHT22;65381;51.254;15.592;2023-06-19T12:46:52;38.10;32.90
76537;DHT22;65381;51.254;15.592;2023-06-19T12:49:20;37.50;33.00
76537;DHT22;65381;51.254;15.592;2023-06-19T12:51:48;37.00;33.00
76537;DHT22;65381;51.254;15.592;2023-06-19T12:54:19;36.60;33.30
76537;DHT22;65381;51.254;15.592;2023-06-19T12:56:48;36.70;33.40
76537;DHT22;65381;51.254;15.592;2023-06-19T12:59:16;36.70;33.20
76537;DHT22;65381;51.254;15.592;2023-06-19T13:01:44;36.40;33.20
76537;DHT22;65381;51.254;15.592;2023-06-19T13:04:12;36.00;33.30
76537;DHT22;65381;51.254;15.592;2023-06-19T13:06:41;35.80;33.40
76537;DHT22;65381;51.254;15.592;2023-06-19T13:09:09;35.30;33.50
76537;DHT22;65381;51.254;15.592;2023-06-19T13:11:37;34.80;33.80
76537;DHT22;65381;51.254;15.592;2023-06-19T13:14:05;34.40;34.00
76537;DHT22;65381;51.254;15.592;2023-06-19T13:16:33;34.20;34.20
76537;DHT22;65381;51.254;15.592;2023-06-19T13:19:15;33.90;34.30
76537;DHT22;65381;51.254;15.592;2023-06-19T13:21:44;33.70;34.50
76537;DHT22;65381;51.254;15.592;2023-06-19T13:24:12;33.50;34.50
76537;DHT22;65381;51.254;15.592;2023-06-19T13:26:40;33.10;34.70
76537;DHT22;65381;51.254;15.592;2023-06-19T13:29:08;32.60;35.00
76537;DHT22;65381;51.254;15.592;2023-06-19T13:31:36;32.50;35.10
76537;DHT22;65381;51.254;15.592;2023-06-19T13:34:04;32.40;35.20
76537;DHT22;65381;51.254;15.592;2023-06-19T13:36:32;32.00;35.40
76537;DHT22;65381;51.254;15.592;2023-06-19T13:39:00;31.70;35.60
76537;DHT22;65381;51.254;15.592;2023-06-19T13:41:28;31.30;35.90
76537;DHT22;65381;51.254;15.592;2023-06-19T13:43:59;31.20;35.90
76537;DHT22;65381;51.254;15.592;2023-06-19T13:46:28;31.20;36.00
76537;DHT22;65381;51.254;15.592;2023-06-19T13:48:56;31.10;36.00
76537;DHT22;65381;51.254;15.592;2023-06-19T13:51:24;31.10;36.10
76537;DHT22;65381;51.254;15.592;2023-06-19T13:53:52;31.00;36.10
76537;DHT22;65381;51.254;15.592;2023-06-19T13:56:21;31.00;36.20
76537;DHT22;65381;51.254;15.592;2023-06-19T13:58:51;31.10;36.20
76537;DHT22;65381;51.254;15.592;2023-06-19T14:01:19;31.00;36.30
76537;DHT22;65381;51.254;15.592;2023-06-19T14:03:47;30.70;36.50
76537;DHT22;65381;51.254;15.592;2023-06-19T14:06:15;30.50;36.70
76537;DHT22;65381;51.254;15.592;2023-06-19T14:08:43;30.30;36.70
76537;DHT22;65381;51.254;15.592;2023-06-19T14:11:11;30.10;36.90
76537;DHT22;65381;51.254;15.592;2023-06-19T14:13:39;30.00;37.10
76537;DHT22;65381;51.254;15.592;2023-06-19T14:16:07;30.00;37.20
76537;DHT22;65381;51.254;15.592;2023-06-19T14:18:35;30.00;37.10
76537;DHT22;65381;51.254;15.592;2023-06-19T14:21:05;30.00;37.20
76537;DHT22;65381;51.254;15.592;2023-06-19T14:23:33;30.00;37.20
76537;DHT22;65381;51.254;15.592;2023-06-19T14:26:06;30.10;37.20
76537;DHT22;65381;51.254;15.592;2023-06-19T14:28:34;30.30;37.20
76537;DHT22;65381;51.254;15.592;2023-06-19T14:31:02;30.30;37.20
76537;DHT22;65381;51.254;15.592;2023-06-19T14:33:30;30.30;37.20
76537;DHT22;65381;51.254;15.592;2023-06-19T14:36:00;30.40;37.20
76537;DHT22;65381;51.254;15.592;2023-06-19T14:38:30;30.40;37.20
76537;DHT22;65381;51.254;15.592;2023-06-19T14:41:02;30.50;37.20
76537;DHT22;65381;51.254;15.592;2023-06-19T14:43:30;30.50;37.10
76537;DHT22;65381;51.254;15.592;2023-06-19T14:46:01;30.50;37.10
76537;DHT22;65381;51.254;15.592;2023-06-19T14:48:32;30.30;37.20
76537;DHT22;65381;51.254;15.592;2023-06-19T14:51:00;30.30;37.20
76537;DHT22;65381;51.254;15.592;2023-06-19T14:53:28;30.30;37.20
76537;DHT22;65381;51.254;15.592;2023-06-19T14:55:56;30.30;37.20
76537;DHT22;65381;51.254;15.592;2023-06-19T14:58:24;30.30;37.20
76537;DHT22;65381;51.254;15.592;2023-06-19T15:00:58;30.10;37.20
76537;DHT22;65381;51.254;15.592;2023-06-19T15:03:26;29.90;37.40
76537;DHT22;65381;51.254;15.592;2023-06-19T15:05:54;29.70;37.50
76537;DHT22;65381;51.254;15.592;2023-06-19T15:08:22;29.70;37.60
76537;DHT22;65381;51.254;15.592;2023-06-19T15:10:52;29.70;37.50
76537;DHT22;65381;51.254;15.592;2023-06-19T15:13:20;29.90;37.50
76537;DHT22;65381;51.254;15.592;2023-06-19T15:15:48;30.00;37.50
76537;DHT22;65381;51.254;15.592;2023-06-19T15:18:18;30.10;37.40
76537;DHT22;65381;51.254;15.592;2023-06-19T15:20:46;30.20;37.30
76537;DHT22;65381;51.254;15.592;2023-06-19T15:23:14;30.20;37.40
76537;DHT22;65381;51.254;15.592;2023-06-19T15:25:42;30.10;37.40
76537;DHT22;65381;51.254;15.592;2023-06-19T15:28:10;30.10;37.50
76537;DHT22;65381;51.254;15.592;2023-06-19T15:30:38;30.00;37.50